LTAR

Sivas Airport

Sivas, Turkey
TAF LTAR 260140Z 2603/2612 VRB02KT CAVOK BECMG 2606/2609 SCT040
Issued Valid From Valid To
Apr-26 @ 01:40 UTC
(2 hours ago)
Apr-26 @ 03:00 UTC
(29 minutes ago)
Apr-26 @ 12:00 UTC
(in 9 hours)
Apr-26 @ 03:00 to Apr-26 @ 06:00
TAF LTAR 260140Z 2603/2612 VRB02KT CAVOK
Wind Visibility Clouds Conditions
Variable at 2 knots 10,000+ meters
  • No significant clouds
Becoming Apr-26 @ 06:00 to Apr-26 @ 12:00
BECMG 2606/2609 SCT040
Wind Visibility Clouds Conditions
Variable at 2 knots 10,000+ meters
  • Scattered at 4,000' AGL
TAF LTAR 260140Z 2603/2612 VRB02KT CAVOK BECMG 2606/2609 SCT040
Issued Apr-26 @ 01:40 UTC
(2 hours ago)
Valid From Apr-26 @ 03:00 UTC
(29 minutes ago)
Valid To Apr-26 @ 12:00 UTC
(in 9 hours)
Apr-26 @ 03:00 - Apr-26 @ 06:00
Wind Visibility
Variable at 2 knots 10,000+ meters
Clouds
  • No significant clouds
Conditions
Becoming Apr-26 @ 06:00 - Apr-26 @ 12:00
Wind Visibility
Variable at 2 knots 10,000+ meters
Clouds
  • Scattered at 4,000' AGL
Conditions